sensor_id;sensor_type;location;lat;lon;timestamp;temperature;humidity
15666;DHT22;20725;51.196;3.510;2022-07-30T00:01:55;15.20;97.20
15666;DHT22;20725;51.196;3.510;2022-07-30T00:04:25;15.20;96.90
15666;DHT22;20725;51.196;3.510;2022-07-30T00:07:11;15.10;96.60
15666;DHT22;20725;51.196;3.510;2022-07-30T00:09:53;15.10;96.70
15666;DHT22;20725;51.196;3.510;2022-07-30T00:12:20;15.00;95.40
15666;DHT22;20725;51.196;3.510;2022-07-30T00:14:46;15.00;94.70
15666;DHT22;20725;51.196;3.510;2022-07-30T00:17:15;15.00;94.70
15666;DHT22;20725;51.196;3.510;2022-07-30T00:19:44;15.00;95.20
15666;DHT22;20725;51.196;3.510;2022-07-30T00:22:14;15.00;95.70
15666;DHT22;20725;51.196;3.510;2022-07-30T00:24:43;15.00;96.00
15666;DHT22;20725;51.196;3.510;2022-07-30T00:27:13;15.00;96.50
15666;DHT22;20725;51.196;3.510;2022-07-30T00:29:41;15.10;97.40
15666;DHT22;20725;51.196;3.510;2022-07-30T00:32:10;15.00;97.20
15666;DHT22;20725;51.196;3.510;2022-07-30T00:34:36;14.90;97.50
15666;DHT22;20725;51.196;3.510;2022-07-30T00:37:06;14.90;98.10
15666;DHT22;20725;51.196;3.510;2022-07-30T00:39:36;14.80;97.50
15666;DHT22;20725;51.196;3.510;2022-07-30T00:42:05;14.80;97.00
15666;DHT22;20725;51.196;3.510;2022-07-30T00:44:32;14.80;97.60
15666;DHT22;20725;51.196;3.510;2022-07-30T00:47:05;14.70;97.90
15666;DHT22;20725;51.196;3.510;2022-07-30T00:49:32;14.70;98.10
15666;DHT22;20725;51.196;3.510;2022-07-30T00:51:59;14.60;98.10
15666;DHT22;20725;51.196;3.510;2022-07-30T00:54:27;14.50;98.10
15666;DHT22;20725;51.196;3.510;2022-07-30T00:56:54;14.60;98.50
15666;DHT22;20725;51.196;3.510;2022-07-30T00:59:21;14.60;97.90
15666;DHT22;20725;51.196;3.510;2022-07-30T01:01:52;14.60;97.90
15666;DHT22;20725;51.196;3.510;2022-07-30T01:04:22;14.60;97.80
15666;DHT22;20725;51.196;3.510;2022-07-30T01:06:57;14.60;97.80
15666;DHT22;20725;51.196;3.510;2022-07-30T01:09:25;14.50;98.30
15666;DHT22;20725;51.196;3.510;2022-07-30T01:11:57;14.50;98.20
15666;DHT22;20725;51.196;3.510;2022-07-30T01:14:24;14.60;98.60
15666;DHT22;20725;51.196;3.510;2022-07-30T01:16:51;14.50;98.20
15666;DHT22;20725;51.196;3.510;2022-07-30T01:19:19;14.50;98.30
15666;DHT22;20725;51.196;3.510;2022-07-30T01:22:11;14.50;98.60
15666;DHT22;20725;51.196;3.510;2022-07-30T01:24:42;14.50;97.80
15666;DHT22;20725;51.196;3.510;2022-07-30T01:27:12;14.30;95.40
15666;DHT22;20725;51.196;3.510;2022-07-30T01:29:40;14.20;95.60
15666;DHT22;20725;51.196;3.510;2022-07-30T01:32:08;14.10;95.40
15666;DHT22;20725;51.196;3.510;2022-07-30T01:34:36;14.00;95.80
15666;DHT22;20725;51.196;3.510;2022-07-30T01:37:05;14.00;96.50
15666;DHT22;20725;51.196;3.510;2022-07-30T01:39:34;14.10;97.20
15666;DHT22;20725;51.196;3.510;2022-07-30T01:42:01;14.10;97.30
15666;DHT22;20725;51.196;3.510;2022-07-30T01:44:35;14.00;97.60
15666;DHT22;20725;51.196;3.510;2022-07-30T01:47:03;14.00;96.70
15666;DHT22;20725;51.196;3.510;2022-07-30T01:49:32;14.10;96.60
15666;DHT22;20725;51.196;3.510;2022-07-30T01:52:00;14.00;96.60
15666;DHT22;20725;51.196;3.510;2022-07-30T01:54:27;14.00;96.30
15666;DHT22;20725;51.196;3.510;2022-07-30T01:56:57;13.90;95.30
15666;DHT22;20725;51.196;3.510;2022-07-30T01:59:27;13.80;95.30
15666;DHT22;20725;51.196;3.510;2022-07-30T02:01:55;13.80;94.30
15666;DHT22;20725;51.196;3.510;2022-07-30T02:04:23;13.70;94.60
15666;DHT22;20725;51.196;3.510;2022-07-30T02:06:55;13.60;95.10
15666;DHT22;20725;51.196;3.510;2022-07-30T02:09:27;13.60;95.40
15666;DHT22;20725;51.196;3.510;2022-07-30T02:11:55;13.60;95.30
15666;DHT22;20725;51.196;3.510;2022-07-30T02:14:42;13.50;95.60
15666;DHT22;20725;51.196;3.510;2022-07-30T02:17:14;13.50;95.90
15666;DHT22;20725;51.196;3.510;2022-07-30T02:19:42;13.50;95.70
15666;DHT22;20725;51.196;3.510;2022-07-30T02:22:12;13.30;95.90
15666;DHT22;20725;51.196;3.510;2022-07-30T02:24:40;13.30;96.10
15666;DHT22;20725;51.196;3.510;2022-07-30T02:27:07;13.30;96.20
15666;DHT22;20725;51.196;3.510;2022-07-30T02:29:35;13.30;96.60
15666;DHT22;20725;51.196;3.510;2022-07-30T02:32:05;13.40;96.80
15666;DHT22;20725;51.196;3.510;2022-07-30T02:34:38;13.40;97.40
15666;DHT22;20725;51.196;3.510;2022-07-30T02:37:07;13.40;96.40
15666;DHT22;20725;51.196;3.510;2022-07-30T02:39:35;13.30;95.60
15666;DHT22;20725;51.196;3.510;2022-07-30T02:42:03;13.30;95.50
15666;DHT22;20725;51.196;3.510;2022-07-30T02:44:39;13.30;96.00
15666;DHT22;20725;51.196;3.510;2022-07-30T02:47:08;13.20;96.00
15666;DHT22;20725;51.196;3.510;2022-07-30T02:49:37;13.20;96.20
15666;DHT22;20725;51.196;3.510;2022-07-30T02:52:13;13.20;96.20
15666;DHT22;20725;51.196;3.510;2022-07-30T02:54:43;13.30;96.20
15666;DHT22;20725;51.196;3.510;2022-07-30T02:57:11;13.30;96.40
15666;DHT22;20725;51.196;3.510;2022-07-30T02:59:46;13.20;96.90
15666;DHT22;20725;51.196;3.510;2022-07-30T03:02:14;13.10;96.70
15666;DHT22;20725;51.196;3.510;2022-07-30T03:04:44;13.10;96.90
15666;DHT22;20725;51.196;3.510;2022-07-30T03:07:15;13.20;97.20
15666;DHT22;20725;51.196;3.510;2022-07-30T03:09:51;13.20;97.30
15666;DHT22;20725;51.196;3.510;2022-07-30T03:12:19;13.30;97.40
15666;DHT22;20725;51.196;3.510;2022-07-30T03:14:47;13.40;97.50
15666;DHT22;20725;51.196;3.510;2022-07-30T03:17:14;13.30;96.50
15666;DHT22;20725;51.196;3.510;2022-07-30T03:19:44;13.20;96.30
15666;DHT22;20725;51.196;3.510;2022-07-30T03:22:14;13.20;96.50
15666;DHT22;20725;51.196;3.510;2022-07-30T03:24:43;13.30;96.70
15666;DHT22;20725;51.196;3.510;2022-07-30T03:27:12;13.30;97.10
15666;DHT22;20725;51.196;3.510;2022-07-30T03:29:40;13.40;97.20
15666;DHT22;20725;51.196;3.510;2022-07-30T03:32:07;13.50;98.30
15666;DHT22;20725;51.196;3.510;2022-07-30T03:34:34;13.60;98.40
15666;DHT22;20725;51.196;3.510;2022-07-30T03:37:04;13.70;98.70
15666;DHT22;20725;51.196;3.510;2022-07-30T03:39:31;13.70;98.60
15666;DHT22;20725;51.196;3.510;2022-07-30T03:41:59;13.70;97.80
15666;DHT22;20725;51.196;3.510;2022-07-30T03:44:26;13.70;97.10
15666;DHT22;20725;51.196;3.510;2022-07-30T03:46:53;13.70;97.30
15666;DHT22;20725;51.196;3.510;2022-07-30T03:49:21;13.70;97.10
15666;DHT22;20725;51.196;3.510;2022-07-30T03:51:50;13.60;96.90
15666;DHT22;20725;51.196;3.510;2022-07-30T03:54:24;13.60;96.90
15666;DHT22;20725;51.196;3.510;2022-07-30T03:56:51;13.50;97.10
15666;DHT22;20725;51.196;3.510;2022-07-30T03:59:18;13.50;97.20
15666;DHT22;20725;51.196;3.510;2022-07-30T04:01:45;13.50;97.80
15666;DHT22;20725;51.196;3.510;2022-07-30T04:04:12;13.50;99.40
15666;DHT22;20725;51.196;3.510;2022-07-30T04:06:40;13.50;99.40
15666;DHT22;20725;51.196;3.510;2022-07-30T04:11:52;13.50;99.30
15666;DHT22;20725;51.196;3.510;2022-07-30T04:14:20;13.40;98.90
15666;DHT22;20725;51.196;3.510;2022-07-30T04:16:51;13.30;98.70
15666;DHT22;20725;51.196;3.510;2022-07-30T04:19:25;13.40;98.90
15666;DHT22;20725;51.196;3.510;2022-07-30T04:21:56;13.40;99.10
15666;DHT22;20725;51.196;3.510;2022-07-30T04:24:24;13.40;98.80
15666;DHT22;20725;51.196;3.510;2022-07-30T04:26:53;13.40;98.90
15666;DHT22;20725;51.196;3.510;2022-07-30T04:29:21;13.50;99.50
15666;DHT22;20725;51.196;3.510;2022-07-30T04:31:50;13.50;99.30
15666;DHT22;20725;51.196;3.510;2022-07-30T04:34:17;13.40;98.90
15666;DHT22;20725;51.196;3.510;2022-07-30T04:37:14;13.40;98.00
15666;DHT22;20725;51.196;3.510;2022-07-30T04:39:45;13.20;97.80
15666;DHT22;20725;51.196;3.510;2022-07-30T04:45:34;13.10;99.00
15666;DHT22;20725;51.196;3.510;2022-07-30T04:48:02;13.20;99.30
15666;DHT22;20725;51.196;3.510;2022-07-30T04:50:37;13.30;99.30
15666;DHT22;20725;51.196;3.510;2022-07-30T04:53:09;13.50;99.80
15666;DHT22;20725;51.196;3.510;2022-07-30T04:56:00;13.70;99.90
15666;DHT22;20725;51.196;3.510;2022-07-30T05:00:07;13.90;99.90
15666;DHT22;20725;51.196;3.510;2022-07-30T05:01:26;14.10;99.90
15666;DHT22;20725;51.196;3.510;2022-07-30T05:04:10;14.40;99.90
15666;DHT22;20725;51.196;3.510;2022-07-30T05:06:59;14.60;99.70
15666;DHT22;20725;51.196;3.510;2022-07-30T05:15:24;14.80;99.00
15666;DHT22;20725;51.196;3.510;2022-07-30T05:17:59;14.90;98.90
15666;DHT22;20725;51.196;3.510;2022-07-30T05:20:33;14.90;98.70
15666;DHT22;20725;51.196;3.510;2022-07-30T05:23:05;14.80;98.20
15666;DHT22;20725;51.196;3.510;2022-07-30T05:25:39;15.00;98.20
15666;DHT22;20725;51.196;3.510;2022-07-30T05:28:11;15.20;98.00
15666;DHT22;20725;51.196;3.510;2022-07-30T05:30:38;15.30;97.90
15666;DHT22;20725;51.196;3.510;2022-07-30T05:33:18;15.60;97.70
15666;DHT22;20725;51.196;3.510;2022-07-30T05:35:53;15.90;97.50
15666;DHT22;20725;51.196;3.510;2022-07-30T05:38:24;16.20;96.90
15666;DHT22;20725;51.196;3.510;2022-07-30T05:41:04;16.50;96.30
15666;DHT22;20725;51.196;3.510;2022-07-30T05:43:30;16.80;95.80
15666;DHT22;20725;51.196;3.510;2022-07-30T05:46:06;17.10;94.90
15666;DHT22;20725;51.196;3.510;2022-07-30T05:51:34;17.80;93.70
15666;DHT22;20725;51.196;3.510;2022-07-30T05:54:04;18.00;93.30
15666;DHT22;20725;51.196;3.510;2022-07-30T05:56:45;18.10;92.50
15666;DHT22;20725;51.196;3.510;2022-07-30T06:00:50;18.30;92.30
15666;DHT22;20725;51.196;3.510;2022-07-30T06:02:03;18.40;92.10
15666;DHT22;20725;51.196;3.510;2022-07-30T06:04:31;18.30;92.40
15666;DHT22;20725;51.196;3.510;2022-07-30T06:07:05;18.60;92.30
15666;DHT22;20725;51.196;3.510;2022-07-30T06:09:49;18.80;92.20
15666;DHT22;20725;51.196;3.510;2022-07-30T06:12:42;19.20;92.00
15666;DHT22;20725;51.196;3.510;2022-07-30T06:15:14;19.60;91.50
15666;DHT22;20725;51.196;3.510;2022-07-30T06:17:49;19.90;90.90
15666;DHT22;20725;51.196;3.510;2022-07-30T06:20:38;20.40;90.40
15666;DHT22;20725;51.196;3.510;2022-07-30T06:23:11;20.90;89.40
15666;DHT22;20725;51.196;3.510;2022-07-30T06:25:38;21.20;88.50
15666;DHT22;20725;51.196;3.510;2022-07-30T06:28:04;21.70;86.50
15666;DHT22;20725;51.196;3.510;2022-07-30T06:30:33;22.10;84.50
15666;DHT22;20725;51.196;3.510;2022-07-30T06:33:00;22.50;81.30
15666;DHT22;20725;51.196;3.510;2022-07-30T06:35:33;22.90;78.50
15666;DHT22;20725;51.196;3.510;2022-07-30T06:38:00;23.00;75.50
15666;DHT22;20725;51.196;3.510;2022-07-30T06:43:19;24.00;72.90
15666;DHT22;20725;51.196;3.510;2022-07-30T06:45:51;24.80;70.70
15666;DHT22;20725;51.196;3.510;2022-07-30T06:48:17;25.50;67.50
15666;DHT22;20725;51.196;3.510;2022-07-30T06:50:46;26.10;64.20
15666;DHT22;20725;51.196;3.510;2022-07-30T06:53:14;27.20;61.20
15666;DHT22;20725;51.196;3.510;2022-07-30T06:55:52;27.40;57.70
15666;DHT22;20725;51.196;3.510;2022-07-30T06:58:38;27.60;57.30
15666;DHT22;20725;51.196;3.510;2022-07-30T07:01:11;28.20;55.10
15666;DHT22;20725;51.196;3.510;2022-07-30T07:04:46;28.10;53.40
15666;DHT22;20725;51.196;3.510;2022-07-30T07:07:21;27.90;53.30
15666;DHT22;20725;51.196;3.510;2022-07-30T07:10:06;28.20;52.00
15666;DHT22;20725;51.196;3.510;2022-07-30T07:12:44;29.00;48.60
15666;DHT22;20725;51.196;3.510;2022-07-30T07:15:38;29.10;48.90
15666;DHT22;20725;51.196;3.510;2022-07-30T07:18:05;29.10;48.20
15666;DHT22;20725;51.196;3.510;2022-07-30T07:20:39;29.40;47.80
15666;DHT22;20725;51.196;3.510;2022-07-30T07:23:07;30.20;46.30
15666;DHT22;20725;51.196;3.510;2022-07-30T07:25:38;30.40;43.60
15666;DHT22;20725;51.196;3.510;2022-07-30T07:28:05;30.30;41.60
15666;DHT22;20725;51.196;3.510;2022-07-30T07:30:37;30.40;41.30
15666;DHT22;20725;51.196;3.510;2022-07-30T07:33:10;30.60;41.80
15666;DHT22;20725;51.196;3.510;2022-07-30T07:35:38;30.60;40.60
15666;DHT22;20725;51.196;3.510;2022-07-30T07:38:07;30.10;40.20
15666;DHT22;20725;51.196;3.510;2022-07-30T07:40:34;29.70;40.00
15666;DHT22;20725;51.196;3.510;2022-07-30T07:43:02;29.80;41.10
15666;DHT22;20725;51.196;3.510;2022-07-30T07:45:57;29.40;39.80
15666;DHT22;20725;51.196;3.510;2022-07-30T07:48:32;28.40;42.00
15666;DHT22;20725;51.196;3.510;2022-07-30T07:50:59;29.00;41.50
15666;DHT22;20725;51.196;3.510;2022-07-30T07:53:26;30.00;40.40
15666;DHT22;20725;51.196;3.510;2022-07-30T07:55:55;30.90;38.90
15666;DHT22;20725;51.196;3.510;2022-07-30T07:58:23;30.80;38.50
15666;DHT22;20725;51.196;3.510;2022-07-30T08:00:49;31.40;39.10
15666;DHT22;20725;51.196;3.510;2022-07-30T08:03:21;32.90;38.10
15666;DHT22;20725;51.196;3.510;2022-07-30T08:05:47;33.40;35.30
15666;DHT22;20725;51.196;3.510;2022-07-30T08:08:14;31.90;34.00
15666;DHT22;20725;51.196;3.510;2022-07-30T08:10:41;32.00;36.60
15666;DHT22;20725;51.196;3.510;2022-07-30T08:13:08;33.30;36.00
15666;DHT22;20725;51.196;3.510;2022-07-30T08:15:35;34.40;33.60
15666;DHT22;20725;51.196;3.510;2022-07-30T08:18:01;34.50;32.50
15666;DHT22;20725;51.196;3.510;2022-07-30T08:20:30;34.10;32.80
15666;DHT22;20725;51.196;3.510;2022-07-30T08:22:57;35.40;31.80
15666;DHT22;20725;51.196;3.510;2022-07-30T08:25:25;36.80;29.50
15666;DHT22;20725;51.196;3.510;2022-07-30T08:27:53;38.00;29.00
15666;DHT22;20725;51.196;3.510;2022-07-30T08:31:06;38.60;28.00
15666;DHT22;20725;51.196;3.510;2022-07-30T08:33:33;39.20;27.30
15666;DHT22;20725;51.196;3.510;2022-07-30T08:36:00;39.70;26.10
15666;DHT22;20725;51.196;3.510;2022-07-30T08:38:27;40.00;24.80
15666;DHT22;20725;51.196;3.510;2022-07-30T08:40:54;40.70;24.70
15666;DHT22;20725;51.196;3.510;2022-07-30T08:43:21;40.50;24.50
15666;DHT22;20725;51.196;3.510;2022-07-30T08:45:50;39.60;23.50
15666;DHT22;20725;51.196;3.510;2022-07-30T08:48:19;39.10;23.50
15666;DHT22;20725;51.196;3.510;2022-07-30T08:50:47;38.70;22.90
15666;DHT22;20725;51.196;3.510;2022-07-30T08:53:14;38.80;23.10
15666;DHT22;20725;51.196;3.510;2022-07-30T08:55:41;38.50;23.40
15666;DHT22;20725;51.196;3.510;2022-07-30T08:58:09;38.20;24.00
15666;DHT22;20725;51.196;3.510;2022-07-30T09:00:37;38.50;24.30
15666;DHT22;20725;51.196;3.510;2022-07-30T09:03:08;37.70;23.90
15666;DHT22;20725;51.196;3.510;2022-07-30T09:05:36;36.40;25.00
15666;DHT22;20725;51.196;3.510;2022-07-30T09:08:05;36.60;25.40
15666;DHT22;20725;51.196;3.510;2022-07-30T09:10:32;37.30;25.40
15666;DHT22;20725;51.196;3.510;2022-07-30T09:13:00;38.00;25.50
15666;DHT22;20725;51.196;3.510;2022-07-30T09:15:27;37.30;24.80
15666;DHT22;20725;51.196;3.510;2022-07-30T09:17:55;35.90;26.30
15666;DHT22;20725;51.196;3.510;2022-07-30T09:20:23;35.20;26.80
15666;DHT22;20725;51.196;3.510;2022-07-30T09:22:52;35.90;26.60
15666;DHT22;20725;51.196;3.510;2022-07-30T09:25:35;36.20;26.60
15666;DHT22;20725;51.196;3.510;2022-07-30T09:28:02;36.20;26.20
15666;DHT22;20725;51.196;3.510;2022-07-30T09:30:46;36.10;26.50
15666;DHT22;20725;51.196;3.510;2022-07-30T09:33:13;35.40;26.60
15666;DHT22;20725;51.196;3.510;2022-07-30T09:35:41;34.90;27.30
15666;DHT22;20725;51.196;3.510;2022-07-30T09:38:11;32.10;29.10
15666;DHT22;20725;51.196;3.510;2022-07-30T09:40:38;32.40;29.70
15666;DHT22;20725;51.196;3.510;2022-07-30T09:43:07;33.00;29.50
15666;DHT22;20725;51.196;3.510;2022-07-30T09:45:34;33.70;28.60
15666;DHT22;20725;51.196;3.510;2022-07-30T09:48:01;34.60;28.50
15666;DHT22;20725;51.196;3.510;2022-07-30T09:50:31;35.30;27.80
15666;DHT22;20725;51.196;3.510;2022-07-30T09:53:04;35.70;28.10
15666;DHT22;20725;51.196;3.510;2022-07-30T09:55:33;36.00;27.40
15666;DHT22;20725;51.196;3.510;2022-07-30T09:58:03;35.80;27.00
15666;DHT22;20725;51.196;3.510;2022-07-30T10:00:30;35.90;26.70
15666;DHT22;20725;51.196;3.510;2022-07-30T10:03:00;35.00;27.00
15666;DHT22;20725;51.196;3.510;2022-07-30T10:05:27;35.00;27.70
15666;DHT22;20725;51.196;3.510;2022-07-30T10:07:55;35.40;27.10
15666;DHT22;20725;51.196;3.510;2022-07-30T10:10:26;37.60;26.60
15666;DHT22;20725;51.196;3.510;2022-07-30T10:13:01;37.70;24.30
15666;DHT22;20725;51.196;3.510;2022-07-30T10:15:34;36.30;26.80
15666;DHT22;20725;51.196;3.510;2022-07-30T10:18:03;36.20;25.90
15666;DHT22;20725;51.196;3.510;2022-07-30T10:20:32;37.10;26.10
15666;DHT22;20725;51.196;3.510;2022-07-30T10:23:01;37.50;25.40
15666;DHT22;20725;51.196;3.510;2022-07-30T10:25:35;37.80;24.70
15666;DHT22;20725;51.196;3.510;2022-07-30T10:28:04;37.30;24.10
15666;DHT22;20725;51.196;3.510;2022-07-30T10:30:33;35.90;25.70
15666;DHT22;20725;51.196;3.510;2022-07-30T10:33:00;36.90;25.70
15666;DHT22;20725;51.196;3.510;2022-07-30T10:35:27;36.80;24.90
15666;DHT22;20725;51.196;3.510;2022-07-30T10:37:54;36.30;25.60
15666;DHT22;20725;51.196;3.510;2022-07-30T10:40:25;34.60;26.00
15666;DHT22;20725;51.196;3.510;2022-07-30T10:43:17;36.00;25.80
15666;DHT22;20725;51.196;3.510;2022-07-30T10:45:50;38.20;25.20
15666;DHT22;20725;51.196;3.510;2022-07-30T10:48:21;39.20;23.80
15666;DHT22;20725;51.196;3.510;2022-07-30T10:51:04;39.60;23.40
15666;DHT22;20725;51.196;3.510;2022-07-30T10:53:32;39.40;22.40
15666;DHT22;20725;51.196;3.510;2022-07-30T10:56:15;39.10;22.80
15666;DHT22;20725;51.196;3.510;2022-07-30T10:58:58;39.00;22.30
15666;DHT22;20725;51.196;3.510;2022-07-30T11:09:40;38.00;23.30
15666;DHT22;20725;51.196;3.510;2022-07-30T11:12:12;36.90;24.30
15666;DHT22;20725;51.196;3.510;2022-07-30T11:14:57;36.50;24.70
15666;DHT22;20725;51.196;3.510;2022-07-30T11:17:24;37.50;24.70
15666;DHT22;20725;51.196;3.510;2022-07-30T11:20:08;38.90;23.30
15666;DHT22;20725;51.196;3.510;2022-07-30T11:22:35;38.70;23.20
15666;DHT22;20725;51.196;3.510;2022-07-30T11:25:05;36.50;24.20
15666;DHT22;20725;51.196;3.510;2022-07-30T11:27:35;35.00;26.10
15666;DHT22;20725;51.196;3.510;2022-07-30T11:33:06;35.70;25.70
15666;DHT22;20725;51.196;3.510;2022-07-30T11:35:43;34.20;25.10
15666;DHT22;20725;51.196;3.510;2022-07-30T11:38:12;33.40;26.50
15666;DHT22;20725;51.196;3.510;2022-07-30T11:43:22;33.90;26.50
15666;DHT22;20725;51.196;3.510;2022-07-30T11:45:50;33.90;26.60
15666;DHT22;20725;51.196;3.510;2022-07-30T11:48:21;34.70;26.30
15666;DHT22;20725;51.196;3.510;2022-07-30T11:50:50;35.00;26.40
15666;DHT22;20725;51.196;3.510;2022-07-30T11:53:22;34.30;25.90
15666;DHT22;20725;51.196;3.510;2022-07-30T11:55:50;34.50;26.80
15666;DHT22;20725;51.196;3.510;2022-07-30T11:58:28;35.20;25.90
15666;DHT22;20725;51.196;3.510;2022-07-30T12:01:14;36.20;25.50
15666;DHT22;20725;51.196;3.510;2022-07-30T12:03:49;38.00;24.00
15666;DHT22;20725;51.196;3.510;2022-07-30T12:06:31;38.50;22.90
15666;DHT22;20725;51.196;3.510;2022-07-30T12:09:05;37.70;22.40
15666;DHT22;20725;51.196;3.510;2022-07-30T12:11:54;38.00;21.90
15666;DHT22;20725;51.196;3.510;2022-07-30T12:14:35;39.10;22.20
15666;DHT22;20725;51.196;3.510;2022-07-30T12:17:04;40.80;21.10
15666;DHT22;20725;51.196;3.510;2022-07-30T12:19:47;39.40;20.80
15666;DHT22;20725;51.196;3.510;2022-07-30T12:22:20;38.20;21.50
15666;DHT22;20725;51.196;3.510;2022-07-30T12:24:49;39.20;22.10
15666;DHT22;20725;51.196;3.510;2022-07-30T12:27:18;39.90;21.30
15666;DHT22;20725;51.196;3.510;2022-07-30T12:29:46;36.90;21.30
15666;DHT22;20725;51.196;3.510;2022-07-30T12:32:13;38.90;21.90
15666;DHT22;20725;51.196;3.510;2022-07-30T12:34:40;36.90;21.60
15666;DHT22;20725;51.196;3.510;2022-07-30T12:37:20;37.60;21.70
15666;DHT22;20725;51.196;3.510;2022-07-30T12:39:47;33.80;23.70
15666;DHT22;20725;51.196;3.510;2022-07-30T12:42:16;33.20;25.20
15666;DHT22;20725;51.196;3.510;2022-07-30T12:44:43;32.70;25.70
15666;DHT22;20725;51.196;3.510;2022-07-30T12:47:17;33.80;25.20
15666;DHT22;20725;51.196;3.510;2022-07-30T12:49:44;33.90;25.20
15666;DHT22;20725;51.196;3.510;2022-07-30T12:52:20;34.20;24.40
15666;DHT22;20725;51.196;3.510;2022-07-30T12:54:54;33.10;25.40
15666;DHT22;20725;51.196;3.510;2022-07-30T12:57:21;33.10;25.30
15666;DHT22;20725;51.196;3.510;2022-07-30T12:59:59;34.30;24.60
15666;DHT22;20725;51.196;3.510;2022-07-30T13:02:29;34.60;23.90
15666;DHT22;20725;51.196;3.510;2022-07-30T13:04:57;35.40;23.70
15666;DHT22;20725;51.196;3.510;2022-07-30T13:07:40;35.30;22.60
15666;DHT22;20725;51.196;3.510;2022-07-30T13:10:17;35.80;22.90
15666;DHT22;20725;51.196;3.510;2022-07-30T13:12:46;35.10;23.20
15666;DHT22;20725;51.196;3.510;2022-07-30T13:15:17;35.40;23.30
15666;DHT22;20725;51.196;3.510;2022-07-30T13:17:58;35.60;23.10
15666;DHT22;20725;51.196;3.510;2022-07-30T13:20:37;34.20;24.10
15666;DHT22;20725;51.196;3.510;2022-07-30T13:25:58;35.60;23.90
15666;DHT22;20725;51.196;3.510;2022-07-30T13:28:30;35.10;23.60
15666;DHT22;20725;51.196;3.510;2022-07-30T13:30:59;36.10;23.20
15666;DHT22;20725;51.196;3.510;2022-07-30T13:33:41;35.40;23.40
15666;DHT22;20725;51.196;3.510;2022-07-30T13:36:12;34.70;24.00
15666;DHT22;20725;51.196;3.510;2022-07-30T13:38:50;34.60;23.70
15666;DHT22;20725;51.196;3.510;2022-07-30T13:44:08;33.10;24.80
15666;DHT22;20725;51.196;3.510;2022-07-30T13:46:39;33.40;25.30
15666;DHT22;20725;51.196;3.510;2022-07-30T13:49:08;34.30;24.40
15666;DHT22;20725;51.196;3.510;2022-07-30T13:53:10;34.70;23.80
15666;DHT22;20725;51.196;3.510;2022-07-30T13:54:53;34.40;24.10
15666;DHT22;20725;51.196;3.510;2022-07-30T13:57:15;34.00;24.10
15666;DHT22;20725;51.196;3.510;2022-07-30T13:59:48;33.30;25.30
15666;DHT22;20725;51.196;3.510;2022-07-30T14:02:14;32.70;25.70
15666;DHT22;20725;51.196;3.510;2022-07-30T14:04:41;31.70;26.40
15666;DHT22;20725;51.196;3.510;2022-07-30T14:07:12;31.00;27.40
15666;DHT22;20725;51.196;3.510;2022-07-30T14:09:39;30.50;28.60
15666;DHT22;20725;51.196;3.510;2022-07-30T14:12:06;30.70;28.20
15666;DHT22;20725;51.196;3.510;2022-07-30T14:14:41;31.20;27.70
15666;DHT22;20725;51.196;3.510;2022-07-30T14:17:09;30.30;28.00
15666;DHT22;20725;51.196;3.510;2022-07-30T14:19:39;30.30;28.80
15666;DHT22;20725;51.196;3.510;2022-07-30T14:22:13;29.80;29.20
15666;DHT22;20725;51.196;3.510;2022-07-30T14:25:06;29.90;29.20
15666;DHT22;20725;51.196;3.510;2022-07-30T14:27:35;31.00;28.60
15666;DHT22;20725;51.196;3.510;2022-07-30T14:30:08;31.70;27.20
15666;DHT22;20725;51.196;3.510;2022-07-30T14:32:37;32.20;26.70
15666;DHT22;20725;51.196;3.510;2022-07-30T14:35:04;32.70;26.50
15666;DHT22;20725;51.196;3.510;2022-07-30T14:37:33;33.10;26.10
15666;DHT22;20725;51.196;3.510;2022-07-30T14:40:02;32.50;26.00
15666;DHT22;20725;51.196;3.510;2022-07-30T14:42:42;31.90;26.50
15666;DHT22;20725;51.196;3.510;2022-07-30T14:45:09;31.90;26.80
15666;DHT22;20725;51.196;3.510;2022-07-30T14:47:49;32.20;26.50
15666;DHT22;20725;51.196;3.510;2022-07-30T14:50:35;32.70;26.50
15666;DHT22;20725;51.196;3.510;2022-07-30T14:53:10;34.40;25.30
15666;DHT22;20725;51.196;3.510;2022-07-30T14:55:47;34.00;24.60
15666;DHT22;20725;51.196;3.510;2022-07-30T14:58:15;33.90;25.20
15666;DHT22;20725;51.196;3.510;2022-07-30T15:00:50;32.90;25.90
15666;DHT22;20725;51.196;3.510;2022-07-30T15:03:23;32.10;26.30
15666;DHT22;20725;51.196;3.510;2022-07-30T15:05:50;31.80;26.80
15666;DHT22;20725;51.196;3.510;2022-07-30T15:08:22;32.00;26.80
15666;DHT22;20725;51.196;3.510;2022-07-30T15:10:49;32.10;26.50
15666;DHT22;20725;51.196;3.510;2022-07-30T15:13:34;31.80;27.00
15666;DHT22;20725;51.196;3.510;2022-07-30T15:16:07;32.20;27.00
15666;DHT22;20725;51.196;3.510;2022-07-30T15:18:42;32.00;27.70
15666;DHT22;20725;51.196;3.510;2022-07-30T15:21:11;32.20;31.00
15666;DHT22;20725;51.196;3.510;2022-07-30T15:23:45;32.40;30.80
15666;DHT22;20725;51.196;3.510;2022-07-30T15:26:33;32.60;30.50
15666;DHT22;20725;51.196;3.510;2022-07-30T15:29:00;32.40;31.20
15666;DHT22;20725;51.196;3.510;2022-07-30T15:31:26;32.00;31.80
15666;DHT22;20725;51.196;3.510;2022-07-30T15:34:04;31.80;33.20
15666;DHT22;20725;51.196;3.510;2022-07-30T15:37:06;31.70;33.90
15666;DHT22;20725;51.196;3.510;2022-07-30T15:40:07;32.00;33.90
15666;DHT22;20725;51.196;3.510;2022-07-30T15:42:26;32.10;33.10
15666;DHT22;20725;51.196;3.510;2022-07-30T15:44:54;32.40;33.20
15666;DHT22;20725;51.196;3.510;2022-07-30T15:47:23;32.40;32.60
15666;DHT22;20725;51.196;3.510;2022-07-30T15:49:51;32.20;31.80
15666;DHT22;20725;51.196;3.510;2022-07-30T15:52:20;32.10;31.10
15666;DHT22;20725;51.196;3.510;2022-07-30T15:54:47;32.20;30.60
15666;DHT22;20725;51.196;3.510;2022-07-30T15:57:14;32.50;30.20
15666;DHT22;20725;51.196;3.510;2022-07-30T15:59:41;32.60;29.60
15666;DHT22;20725;51.196;3.510;2022-07-30T16:02:08;32.70;29.80
15666;DHT22;20725;51.196;3.510;2022-07-30T16:04:35;32.60;29.60
15666;DHT22;20725;51.196;3.510;2022-07-30T16:07:03;32.40;29.70
15666;DHT22;20725;51.196;3.510;2022-07-30T16:09:33;32.20;30.00
15666;DHT22;20725;51.196;3.510;2022-07-30T16:12:02;32.10;29.90
15666;DHT22;20725;51.196;3.510;2022-07-30T16:14:43;31.90;30.30
15666;DHT22;20725;51.196;3.510;2022-07-30T16:17:15;31.70;31.40
15666;DHT22;20725;51.196;3.510;2022-07-30T16:19:51;31.50;31.50
15666;DHT22;20725;51.196;3.510;2022-07-30T16:22:36;31.20;32.00
15666;DHT22;20725;51.196;3.510;2022-07-30T16:28:06;30.50;33.40
15666;DHT22;20725;51.196;3.510;2022-07-30T16:30:35;30.40;32.70
15666;DHT22;20725;51.196;3.510;2022-07-30T16:33:02;30.20;33.30
15666;DHT22;20725;51.196;3.510;2022-07-30T16:35:29;30.10;34.80
15666;DHT22;20725;51.196;3.510;2022-07-30T16:40:51;29.70;34.20
15666;DHT22;20725;51.196;3.510;2022-07-30T16:43:18;29.40;34.90